Gray, Texas
Current Conditions -  °F | °C
As of 8:15 AM on Thursday 27 Nov 2014 (Local Time) from KASL Reporting Station
Clear Clear  
Wind Chill: 39°   Ceiling: Unl
Heat Index: 43°   Visibility: 10mi
Dew Point: 30°   Wind: 7mph
Humidity: 60%   Direction: 350°N
Pressure: 30.54"   Gusts: NA
Location:  32.7902°N, 94.3019°W
Report Text: KASL 271415Z AUTO 35006KT 10SM CLR 06/M01 A3054 RMK AO1 T00631010
Loading
Personal Weather Stations






























Interactive Weather Map New forecast layout! Learn more

10-Day Weather Forecast

Advertisements
Track Severe Weather on mobile